Time;durP1;ratioP1;P1;durP2;ratioP2;P2;SDS_P1;SDS_P2;PMS_P1;PMS_P2;Temp;Humidity;BMP_temperature;BMP_pressure;BME280_temperature;BME280_humidity;BME280_pressure;Samples;Min_cycle;Max_cycle;Signal;HPM_P1;HPM_P2
2021/01/14 00:02:47;;;;;;;1.08;0.55;;;16.60;65.50;;;;;;10414781;28;20067;-62
2021/01/14 00:07:49;;;;;;;0.85;0.50;;;16.60;65.40;;;;;;10414690;28;20128;-61
2021/01/14 00:12:50;;;;;;;0.88;0.45;;;16.60;65.40;;;;;;10415069;28;20464;-62
2021/01/14 00:17:50;;;;;;;0.85;0.68;;;16.60;65.30;;;;;;10415084;28;20104;-61
2021/01/14 00:22:51;;;;;;;1.67;0.55;;;16.60;65.20;;;;;;10414569;28;20048;-61
2021/01/14 00:27:52;;;;;;;1.40;0.50;;;16.60;65.20;;;;;;10414697;28;20037;-61
2021/01/14 00:32:54;;;;;;;1.30;0.60;;;16.60;65.10;;;;;;10414041;28;20373;-61
2021/01/14 00:37:56;;;;;;;1.15;0.50;;;16.60;65.00;;;;;;10413854;28;20026;-61
2021/01/14 00:42:59;;;;;;;0.73;0.40;;;16.60;65.00;;;;;;10414253;28;20039;-61
2021/01/14 00:48:01;;;;;;;1.50;0.60;;;16.70;64.90;;;;;;10413634;28;20025;-61
2021/01/14 00:53:02;;;;;;;0.88;0.40;;;16.70;64.80;;;;;;10413840;28;20044;-61
2021/01/14 00:58:02;;;;;;;2.15;0.40;;;16.70;64.80;;;;;;10413827;28;20056;-61
2021/01/14 01:03:04;;;;;;;0.77;0.40;;;16.70;64.80;;;;;;10413774;28;20029;-61
2021/01/14 01:08:04;;;;;;;1.23;0.77;;;16.60;64.80;;;;;;10418850;28;20037;-61
2021/01/14 01:13:05;;;;;;;2.42;0.40;;;16.60;64.70;;;;;;10420520;28;20041;-62
2021/01/14 01:18:06;;;;;;;1.15;0.32;;;16.60;64.70;;;;;;10422075;28;20022;-62
2021/01/14 01:23:07;;;;;;;1.33;0.50;;;16.70;64.70;;;;;;10421609;28;20037;-61
2021/01/14 01:28:07;;;;;;;1.55;0.43;;;16.70;64.60;;;;;;10420022;28;20108;-61
2021/01/14 01:33:08;;;;;;;1.85;0.73;;;16.70;64.60;;;;;;10421054;28;20108;-62
2021/01/14 01:38:09;;;;;;;1.77;0.50;;;16.70;64.70;;;;;;10420719;28;20138;-62
2021/01/14 01:43:10;;;;;;;0.65;0.30;;;16.60;64.70;;;;;;10420948;28;20036;-61
2021/01/14 01:48:11;;;;;;;1.95;0.57;;;16.60;64.60;;;;;;10420018;28;20594;-61
2021/01/14 01:53:12;;;;;;;1.17;0.50;;;16.70;64.60;;;;;;10418666;28;20099;-61
2021/01/14 01:58:14;;;;;;;1.67;0.52;;;16.70;64.40;;;;;;10419847;28;20046;-62
2021/01/14 02:03:16;;;;;;;0.85;0.30;;;16.70;64.50;;;;;;10419724;28;20029;-62
2021/01/14 02:08:31;;;;;;;0.93;0.40;;;16.70;64.40;;;;;;10419795;28;20500;-62
2021/01/14 02:14:06;;;;;;;1.00;0.40;;;16.70;64.40;;;;;;10418366;28;20091;-62
2021/01/14 02:19:41;;;;;;;1.10;0.50;;;16.70;64.40;;;;;;10418391;28;20041;-62
2021/01/14 02:25:03;;;;;;;1.85;0.40;;;16.70;64.30;;;;;;10412628;28;20038;-61
2021/01/14 02:30:08;;;;;;;0.60;0.40;;;16.70;64.30;;;;;;10418982;28;20396;-62
2021/01/14 02:35:10;;;;;;;1.65;0.47;;;16.70;64.30;;;;;;10417498;28;20025;-62
2021/01/14 02:40:11;;;;;;;3.30;0.65;;;16.70;64.20;;;;;;10418385;28;20039;-61
2021/01/14 02:45:13;;;;;;;0.75;0.50;;;16.70;64.20;;;;;;10418255;28;20476;-61
2021/01/14 02:50:16;;;;;;;0.65;0.40;;;16.70;64.20;;;;;;10417811;28;20037;-62
2021/01/14 02:55:17;;;;;;;1.38;0.50;;;16.70;64.20;;;;;;10433024;28;20025;-61
2021/01/14 03:00:18;;;;;;;2.03;0.30;;;16.70;64.20;;;;;;10417510;28;20371;-61
2021/01/14 03:05:19;;;;;;;1.02;0.50;;;16.70;64.10;;;;;;10432820;28;20056;-61
2021/01/14 03:10:19;;;;;;;2.80;0.63;;;16.70;64.20;;;;;;10417415;28;20344;-62
2021/01/14 03:15:20;;;;;;;0.60;0.30;;;16.70;64.10;;;;;;10417075;28;20100;-62
2021/01/14 03:20:21;;;;;;;0.63;0.30;;;16.70;64.00;;;;;;10415798;28;20021;-62
2021/01/14 03:25:22;;;;;;;1.45;0.60;;;16.70;64.00;;;;;;10414273;28;20366;-61
2021/01/14 03:30:23;;;;;;;1.75;0.60;;;16.70;63.90;;;;;;10415530;28;20033;-61
2021/01/14 03:35:24;;;;;;;1.02;0.50;;;16.70;63.90;;;;;;10415259;28;20512;-61
2021/01/14 03:40:25;;;;;;;0.98;0.30;;;16.70;63.90;;;;;;10416033;28;20490;-62
2021/01/14 03:45:26;;;;;;;0.85;0.45;;;16.70;63.90;;;;;;10415938;28;20037;-61
2021/01/14 03:50:26;;;;;;;0.77;0.40;;;16.70;63.90;;;;;;10415482;28;20148;-62
2021/01/14 03:55:27;;;;;;;1.25;0.40;;;16.70;64.50;;;;;;10415565;28;20053;-61
2021/01/14 04:00:28;;;;;;;0.90;0.40;;;16.70;63.80;;;;;;10415225;28;20383;-61
2021/01/14 04:05:28;;;;;;;0.47;0.30;;;16.70;63.70;;;;;;10415302;28;20113;-61
2021/01/14 04:10:29;;;;;;;0.38;0.20;;;16.70;63.70;;;;;;10414902;28;20463;-62
2021/01/14 04:15:30;;;;;;;0.70;0.40;;;16.70;63.70;;;;;;10414996;28;20101;-62
2021/01/14 04:20:30;;;;;;;0.70;0.43;;;16.70;63.70;;;;;;10414780;28;20116;-62
2021/01/14 04:25:31;;;;;;;0.30;0.30;;;16.70;63.70;;;;;;10414558;28;20109;-61
2021/01/14 04:30:35;;;;;;;0.85;0.30;;;16.70;63.60;;;;;;10414206;28;20042;-61
2021/01/14 04:35:35;;;;;;;0.77;0.30;;;16.70;63.70;;;;;;10414152;28;20026;-61
2021/01/14 04:40:36;;;;;;;0.57;0.30;;;16.70;63.60;;;;;;10413105;28;20394;-62
2021/01/14 04:45:43;;;;;;;0.40;0.20;;;16.70;63.50;;;;;;10413687;28;20034;-61
2021/01/14 04:50:46;;;;;;;0.82;0.30;;;16.70;63.50;;;;;;10413270;28;20028;-62
2021/01/14 04:55:48;;;;;;;0.80;0.50;;;16.70;63.50;;;;;;10412234;28;20104;-61
2021/01/14 05:00:51;;;;;;;0.85;0.38;;;16.70;63.50;;;;;;10412388;28;20053;-61
2021/01/14 05:05:52;;;;;;;0.52;0.20;;;16.70;63.40;;;;;;10413641;28;20025;-61
2021/01/14 05:10:54;;;;;;;0.38;0.30;;;16.70;63.40;;;;;;10428914;28;20040;-61
2021/01/14 05:15:55;;;;;;;0.43;0.22;;;16.70;63.40;;;;;;10413626;28;20075;-61
2021/01/14 05:21:00;;;;;;;1.52;0.50;;;16.70;63.40;;;;;;10413272;28;20099;-61
2021/01/14 05:26:02;;;;;;;0.52;0.30;;;16.70;63.30;;;;;;10413322;28;20057;-61
2021/01/14 05:31:17;;;;;;;0.40;0.30;;;16.70;63.30;;;;;;10413168;28;20120;-61
2021/01/14 05:36:17;;;;;;;0.90;0.40;;;16.80;63.20;;;;;;10413254;28;20136;-61
2021/01/14 05:41:28;;;;;;;0.50;0.30;;;16.70;63.20;;;;;;10413090;28;20104;-61
2021/01/14 05:46:31;;;;;;;0.40;0.30;;;16.80;63.20;;;;;;10412726;28;20079;-61
2021/01/14 05:51:33;;;;;;;1.35;0.30;;;16.70;63.10;;;;;;10415046;28;20036;-61
2021/01/14 05:56:38;;;;;;;0.40;0.30;;;16.70;63.10;;;;;;10419997;28;20049;-61
2021/01/14 06:01:55;;;;;;;0.77;0.40;;;16.70;63.10;;;;;;10435511;28;20068;-61
2021/01/14 06:07:02;;;;;;;0.65;0.30;;;16.80;63.10;;;;;;10419911;28;20033;-61
2021/01/14 06:12:11;;;;;;;0.73;0.52;;;16.70;63.10;;;;;;10419843;28;20473;-67
2021/01/14 06:17:13;;;;;;;2.30;0.50;;;16.80;63.10;;;;;;10393143;28;20036;-63
2021/01/14 06:22:16;;;;;;;2.00;0.30;;;16.80;63.70;;;;;;10419128;28;20029;-66
2021/01/14 06:27:17;;;;;;;1.08;0.40;;;16.90;63.90;;;;;;10418790;28;20037;-66
2021/01/14 06:32:20;;;;;;;1.67;0.60;;;16.90;64.10;;;;;;10418775;28;20112;-62
2021/01/14 06:37:27;;;;;;;2.65;0.45;;;17.00;64.40;;;;;;10418774;28;20071;-61
2021/01/14 06:42:34;;;;;;;3.90;0.50;;;17.00;63.90;;;;;;10412234;28;20065;-61
2021/01/14 06:47:39;;;;;;;3.25;0.57;;;17.10;63.70;;;;;;10413500;28;20029;-61
2021/01/14 06:52:47;;;;;;;6.93;0.60;;;17.10;63.20;;;;;;10420777;28;20117;-62
2021/01/14 06:58:08;;;;;;;4.88;0.90;;;17.00;63.60;;;;;;10408106;28;20470;-62
2021/01/14 07:03:14;;;;;;;3.40;0.52;;;17.00;63.60;;;;;;10404364;28;20025;-62
2021/01/14 07:08:36;;;;;;;2.53;0.43;;;17.10;63.20;;;;;;10384174;28;20454;-64
2021/01/14 07:13:46;;;;;;;3.58;0.50;;;17.00;62.80;;;;;;10414655;28;20060;-62
2021/01/14 07:18:48;;;;;;;4.55;0.50;;;17.00;62.80;;;;;;10415831;28;20552;-62
2021/01/14 07:23:55;;;;;;;2.55;0.60;;;17.00;62.60;;;;;;10431640;28;20059;-62
2021/01/14 07:29:00;;;;;;;3.20;0.57;;;17.00;62.30;;;;;;10409195;28;20040;-63
2021/01/14 07:34:39;;;;;;;2.03;0.47;;;17.00;62.30;;;;;;10388380;28;20022;-62
2021/01/14 07:39:55;;;;;;;3.80;0.73;;;17.00;62.40;;;;;;10405974;28;20029;-63
2021/01/14 07:45:02;;;;;;;4.53;0.52;;;16.90;62.50;;;;;;10407065;28;20033;-63
2021/01/14 07:50:22;;;;;;;2.70;0.50;;;16.90;62.50;;;;;;10410278;28;20025;-62
2021/01/14 07:55:31;;;;;;;2.03;0.30;;;16.80;62.60;;;;;;10415302;28;20025;-62
2021/01/14 08:00:32;;;;;;;2.03;0.55;;;16.80;62.70;;;;;;10414841;28;20383;-62
2021/01/14 08:05:58;;;;;;;2.33;0.45;;;16.80;62.90;;;;;;10414425;28;20057;-63
2021/01/14 08:11:22;;;;;;;3.45;0.52;;;16.80;62.80;;;;;;10407633;28;20025;-63
2021/01/14 08:16:52;;;;;;;1.02;0.30;;;16.80;62.80;;;;;;10413002;28;20029;-63
2021/01/14 08:21:58;;;;;;;0.70;0.40;;;16.80;62.80;;;;;;10413934;28;20029;-62
2021/01/14 08:27:02;;;;;;;0.75;0.45;;;16.80;62.70;;;;;;10405853;28;20048;-62
2021/01/14 08:32:24;;;;;;;2.47;0.40;;;16.80;62.80;;;;;;10413168;28;20021;-63
2021/01/14 08:37:34;;;;;;;1.95;0.30;;;16.80;62.90;;;;;;10412535;28;20072;-63
2021/01/14 08:42:40;;;;;;;3.42;0.52;;;16.80;62.80;;;;;;10413145;28;20083;-63
2021/01/14 08:48:04;;;;;;;1.50;0.50;;;16.80;62.90;;;;;;10413819;28;20119;-63
2021/01/14 08:53:29;;;;;;;1.70;0.40;;;16.80;62.80;;;;;;10428639;28;20029;-63
2021/01/14 08:58:37;;;;;;;1.40;0.32;;;16.70;62.80;;;;;;10413181;28;20145;-63
2021/01/14 09:03:41;;;;;;;1.67;0.32;;;16.70;62.80;;;;;;10414782;28;20038;-63
2021/01/14 09:08:42;;;;;;;5.93;0.40;;;16.70;62.80;;;;;;10391759;28;20044;-63
2021/01/14 09:13:42;;;;;;;2.20;0.30;;;16.70;62.80;;;;;;10392167;28;20034;-63
2021/01/14 09:18:43;;;;;;;1.05;0.50;;;16.80;62.80;;;;;;10408031;28;20109;-63
2021/01/14 09:23:44;;;;;;;0.85;0.30;;;16.70;62.80;;;;;;10412574;28;20036;-63
2021/01/14 09:28:53;;;;;;;0.93;0.30;;;16.80;62.80;;;;;;10417844;28;20029;-63
2021/01/14 09:33:58;;;;;;;0.40;0.30;;;16.80;62.70;;;;;;10420468;28;20370;-62
2021/01/14 09:39:14;;;;;;;1.27;0.43;;;16.70;62.80;;;;;;10425546;28;20098;-63
2021/01/14 09:44:15;;;;;;;0.90;0.20;;;16.70;62.90;;;;;;10420339;28;20022;-62
2021/01/14 09:49:21;;;;;;;2.45;0.35;;;16.70;63.00;;;;;;10420106;28;20029;-63
2021/01/14 09:54:23;;;;;;;1.40;0.40;;;16.70;62.90;;;;;;10420032;28;20466;-63
2021/01/14 09:59:34;;;;;;;2.30;0.45;;;16.70;62.90;;;;;;10418330;28;20131;-63
2021/01/14 10:04:41;;;;;;;0.68;0.30;;;16.70;62.90;;;;;;10419568;28;20486;-63
2021/01/14 10:09:43;;;;;;;1.40;0.50;;;16.70;62.90;;;;;;10434166;28;20044;-63
2021/01/14 10:14:43;;;;;;;1.15;0.52;;;16.70;62.90;;;;;;10419110;28;20029;-63
2021/01/14 10:19:47;;;;;;;1.25;0.40;;;16.70;62.90;;;;;;10418355;28;20459;-63
2021/01/14 10:24:48;;;;;;;0.57;0.38;;;16.70;62.90;;;;;;10416380;28;20036;-63
2021/01/14 10:29:55;;;;;;;1.52;0.50;;;16.70;63.00;;;;;;10420497;28;20366;-63
2021/01/14 10:34:56;;;;;;;0.70;0.28;;;16.70;63.00;;;;;;10417385;28;20458;-63
2021/01/14 10:39:59;;;;;;;1.05;0.40;;;16.60;63.10;;;;;;10418219;28;20033;-63
2021/01/14 10:45:07;;;;;;;0.57;0.40;;;16.60;63.20;;;;;;10418376;28;20032;-63
2021/01/14 10:50:26;;;;;;;1.88;0.50;;;16.60;63.20;;;;;;10417665;28;20025;-63
2021/01/14 10:55:26;;;;;;;0.70;0.47;;;16.60;63.20;;;;;;10417327;28;20080;-63
2021/01/14 11:00:36;;;;;;;0.45;0.25;;;16.60;63.40;;;;;;10413430;28;20508;-63
2021/01/14 11:05:47;;;;;;;;;;;16.50;63.40;;;;;;10432526;28;20091;-63
2021/01/14 11:11:05;;;;;;;0.95;0.30;;;16.50;63.50;;;;;;10416676;28;19912;-63
2021/01/14 11:16:11;;;;;;;0.50;0.43;;;16.50;63.50;;;;;;10416466;28;20123;-63
2021/01/14 11:21:14;;;;;;;0.95;0.40;;;16.50;63.50;;;;;;10415466;28;20087;-63
2021/01/14 11:26:19;;;;;;;1.08;0.32;;;16.50;63.50;;;;;;10409046;28;20099;-63
2021/01/14 11:31:23;;;;;;;1.20;0.40;;;16.60;63.40;;;;;;10416022;28;20029;-63
2021/01/14 11:36:25;;;;;;;1.33;0.40;;;16.60;63.60;;;;;;10415896;28;20022;-62
2021/01/14 11:41:25;;;;;;;1.63;0.38;;;16.50;63.20;;;;;;10415461;28;20025;-62
2021/01/14 11:46:26;;;;;;;0.80;0.30;;;16.50;63.40;;;;;;10415977;28;20021;-63
2021/01/14 11:51:27;;;;;;;1.65;0.40;;;16.60;63.90;;;;;;10414785;28;20618;-63
2021/01/14 11:56:27;;;;;;;0.82;0.30;;;16.50;63.30;;;;;;10415060;28;20060;-63
2021/01/14 12:01:28;;;;;;;0.85;0.40;;;16.50;63.90;;;;;;10430775;28;20100;-63
2021/01/14 12:06:29;;;;;;;1.75;0.50;;;16.50;63.30;;;;;;10405380;28;20057;-63
2021/01/14 12:11:29;;;;;;;0.70;0.30;;;16.50;63.30;;;;;;10413332;28;20474;-62
2021/01/14 12:16:30;;;;;;;0.85;0.40;;;16.50;63.50;;;;;;10414487;28;20520;-63
2021/01/14 12:21:31;;;;;;;1.23;0.40;;;16.50;63.60;;;;;;10412408;28;20108;-62
2021/01/14 12:26:31;;;;;;;0.65;0.40;;;16.50;63.60;;;;;;10384001;28;20116;-62
2021/01/14 12:31:35;;;;;;;0.90;0.40;;;16.50;63.50;;;;;;10412527;28;20025;-63
2021/01/14 12:36:36;;;;;;;1.05;0.43;;;16.50;63.40;;;;;;10413359;28;20022;-63
2021/01/14 12:41:37;;;;;;;1.17;0.40;;;16.60;63.50;;;;;;10412359;28;20541;-63
2021/01/14 12:46:45;;;;;;;0.98;0.47;;;16.50;63.50;;;;;;10412424;28;20037;-63
2021/01/14 12:51:46;;;;;;;1.05;0.50;;;16.50;63.50;;;;;;10413177;28;20084;-63
2021/01/14 12:56:47;;;;;;;2.15;0.50;;;16.50;63.40;;;;;;10412683;28;20433;-63
2021/01/14 13:01:48;;;;;;;1.15;0.60;;;16.50;63.40;;;;;;10407308;28;20124;-63
2021/01/14 13:06:48;;;;;;;1.80;0.70;;;16.50;63.30;;;;;;10421850;28;20390;-63
2021/01/14 13:11:55;;;;;;;2.25;0.50;;;16.50;63.10;;;;;;10437051;28;20037;-64
2021/01/14 13:16:56;;;;;;;2.05;0.80;;;16.50;63.10;;;;;;10418263;28;20030;-63
2021/01/14 13:21:56;;;;;;;2.05;0.52;;;16.60;63.00;;;;;;10416382;28;20022;-63
2021/01/14 13:26:57;;;;;;;0.90;0.60;;;16.50;63.00;;;;;;10419957;28;20105;-63
2021/01/14 13:31:58;;;;;;;1.15;0.50;;;16.60;63.00;;;;;;10420174;28;20022;-63
2021/01/14 13:36:59;;;;;;;0.60;0.30;;;16.60;62.90;;;;;;10420138;28;20032;-64
2021/01/14 13:42:00;;;;;;;1.08;0.35;;;16.60;62.80;;;;;;10420231;28;20071;-63
2021/01/14 13:47:00;;;;;;;1.23;0.60;;;16.60;62.70;;;;;;10419383;28;20425;-64
2021/01/14 13:52:02;;;;;;;0.88;0.43;;;16.60;62.60;;;;;;10419542;28;20038;-63
2021/01/14 13:57:04;;;;;;;1.80;0.68;;;16.70;62.50;;;;;;10418070;28;20053;-63
2021/01/14 14:02:05;;;;;;;0.93;0.43;;;16.70;63.00;;;;;;10415885;28;20045;-63
2021/01/14 14:07:06;;;;;;;0.77;0.50;;;16.70;62.50;;;;;;10419515;28;20417;-63
2021/01/14 14:12:07;;;;;;;1.70;0.77;;;16.60;62.40;;;;;;10418734;28;20122;-63
2021/01/14 14:17:08;;;;;;;1.20;0.50;;;16.70;62.40;;;;;;10419060;28;20500;-64
2021/01/14 14:22:08;;;;;;;1.85;0.80;;;16.70;62.50;;;;;;10414650;28;20040;-63
2021/01/14 14:27:09;;;;;;;2.03;0.73;;;16.70;62.40;;;;;;10433755;28;20469;-63
2021/01/14 14:32:10;;;;;;;2.45;0.50;;;16.70;62.40;;;;;;10417519;28;20113;-63
2021/01/14 14:37:10;;;;;;;1.27;0.60;;;16.70;62.40;;;;;;10417952;28;20056;-64
2021/01/14 14:42:11;;;;;;;1.67;0.52;;;16.70;62.30;;;;;;10418061;28;20121;-63
2021/01/14 14:47:12;;;;;;;1.90;0.50;;;16.70;62.30;;;;;;10416677;28;20112;-63
2021/01/14 14:52:13;;;;;;;0.85;0.50;;;16.70;62.20;;;;;;10417522;28;20420;-63
2021/01/14 14:57:13;;;;;;;1.45;0.50;;;16.70;62.20;;;;;;10417837;28;20136;-63
2021/01/14 15:02:14;;;;;;;2.47;0.60;;;16.70;62.20;;;;;;10417358;28;20040;-63
2021/01/14 15:07:15;;;;;;;1.38;0.73;;;16.70;62.20;;;;;;10417359;28;20045;-63
2021/01/14 15:12:15;;;;;;;0.85;0.55;;;16.70;62.20;;;;;;10416970;28;20055;-64
2021/01/14 15:17:16;;;;;;;1.40;0.60;;;16.70;62.10;;;;;;10406990;28;20036;-63
2021/01/14 15:22:17;;;;;;;0.98;0.57;;;16.70;62.10;;;;;;10400130;28;20112;-63
2021/01/14 15:27:17;;;;;;;2.58;0.70;;;16.60;62.10;;;;;;10415618;28;20533;-63
2021/01/14 15:32:18;;;;;;;1.23;0.50;;;16.70;62.10;;;;;;10426051;28;20544;-63
2021/01/14 15:37:21;;;;;;;1.35;0.77;;;16.70;62.10;;;;;;10264889;28;20483;-63
2021/01/14 15:42:22;;;;;;;1.65;0.63;;;16.70;62.00;;;;;;10276372;28;20027;-63
2021/01/14 15:47:22;;;;;;;2.05;0.80;;;16.70;62.10;;;;;;10263788;28;20418;-65
2021/01/14 15:52:23;;;;;;;2.35;1.00;;;16.70;62.10;;;;;;10261047;28;20034;-65
2021/01/14 15:57:23;;;;;;;4.15;1.30;;;16.70;62.00;;;;;;10255629;28;20129;-64
2021/01/14 16:02:25;;;;;;;2.00;1.08;;;16.70;62.00;;;;;;10266679;28;20031;-62
2021/01/14 16:07:27;;;;;;;1.92;1.23;;;16.70;62.20;;;;;;10263684;28;20164;-63
2021/01/14 16:12:27;;;;;;;2.65;0.75;;;16.70;62.20;;;;;;10262423;28;20031;-63
2021/01/14 16:17:28;;;;;;;2.28;1.08;;;16.80;62.00;;;;;;10262144;28;20038;-63
2021/01/14 16:22:30;;;;;;;3.28;1.00;;;16.90;61.90;;;;;;10247292;28;20054;-63
2021/01/14 16:27:31;;;;;;;2.67;1.10;;;16.90;62.00;;;;;;10293115;28;20474;-63
2021/01/14 16:32:31;;;;;;;3.85;0.80;;;16.90;61.90;;;;;;10279101;28;20070;-63
2021/01/14 16:37:32;;;;;;;1.70;0.80;;;17.00;61.80;;;;;;10289803;28;20106;-64
2021/01/14 16:42:33;;;;;;;1.48;0.80;;;17.00;61.40;;;;;;10292423;28;20543;-64
2021/01/14 16:47:36;;;;;;;2.17;1.10;;;17.10;61.20;;;;;;10287187;28;20061;-64
2021/01/14 16:52:37;;;;;;;1.77;0.80;;;17.20;61.00;;;;;;10279312;28;20085;-64
2021/01/14 16:57:39;;;;;;;1.98;1.02;;;17.20;61.00;;;;;;10276352;28;20043;-64
2021/01/14 17:02:40;;;;;;;1.70;0.90;;;17.20;60.90;;;;;;10284216;28;20026;-64
2021/01/14 17:07:40;;;;;;;3.47;1.00;;;17.20;60.80;;;;;;10289672;28;20043;-63
2021/01/14 17:12:41;;;;;;;6.03;1.30;;;17.20;60.60;;;;;;10291681;28;20169;-63
2021/01/14 17:17:42;;;;;;;8.02;1.63;;;17.20;60.70;;;;;;10290428;28;20027;-62
2021/01/14 17:22:48;;;;;;;14.30;3.13;;;17.20;60.60;;;;;;10286181;28;20106;-61
2021/01/14 17:27:49;;;;;;;4.97;1.85;;;17.20;60.10;;;;;;10290332;28;20066;-64
2021/01/14 17:32:50;;;;;;;13.15;2.63;;;17.30;60.50;;;;;;10284217;28;20110;-62
2021/01/14 17:37:51;;;;;;;14.88;3.45;;;17.30;61.50;;;;;;10285281;28;20130;-68
2021/01/14 17:42:52;;;;;;;6.93;2.10;;;17.40;65.90;;;;;;10290775;28;20023;-66
2021/01/14 17:47:53;;;;;;;8.63;2.30;;;17.40;64.40;;;;;;10292807;28;20034;-65
2021/01/14 17:52:53;;;;;;;8.90;2.60;;;17.40;64.60;;;;;;10286028;28;20131;-62
2021/01/14 17:57:54;;;;;;;11.05;2.38;;;17.50;64.60;;;;;;10298774;28;20047;-67
2021/01/14 18:02:55;;;;;;;8.35;2.28;;;17.60;63.90;;;;;;10297034;28;20364;-62
2021/01/14 18:07:55;;;;;;;12.73;2.03;;;17.50;64.20;;;;;;10292717;28;20034;-64
2021/01/14 18:12:56;;;;;;;8.30;1.98;;;17.60;63.30;;;;;;10296559;28;20121;-64
2021/01/14 18:17:57;;;;;;;9.88;2.00;;;17.60;63.00;;;;;;10297860;28;20050;-64
2021/01/14 18:22:57;;;;;;;5.63;1.88;;;17.60;62.80;;;;;;10293666;28;20122;-64
2021/01/14 18:27:58;;;;;;;5.88;1.65;;;17.50;62.60;;;;;;10290893;28;20070;-64
2021/01/14 18:32:59;;;;;;;5.55;1.30;;;17.60;62.60;;;;;;10287382;28;20117;-64
2021/01/14 18:38:00;;;;;;;5.25;1.60;;;17.60;62.80;;;;;;10289609;28;20097;-63
2021/01/14 18:43:00;;;;;;;6.03;2.00;;;17.60;63.00;;;;;;10289242;28;20500;-63
2021/01/14 18:48:01;;;;;;;4.38;2.03;;;17.60;62.90;;;;;;10292886;28;20134;-62
2021/01/14 18:53:02;;;;;;;3.88;1.88;;;17.60;62.10;;;;;;10293638;28;20105;-61
2021/01/14 18:58:03;;;;;;;4.65;2.22;;;17.60;61.20;;;;;;10289798;28;20085;-65
2021/01/14 19:03:03;;;;;;;5.65;2.00;;;17.60;60.60;;;;;;10306098;28;20027;-62
2021/01/14 19:08:04;;;;;;;7.30;2.65;;;17.60;60.10;;;;;;10304586;28;20026;-64
2021/01/14 19:13:06;;;;;;;7.22;2.38;;;17.60;60.10;;;;;;10280483;28;20035;-65
2021/01/14 19:18:06;;;;;;;5.22;1.95;;;17.60;60.00;;;;;;10292952;28;20031;-64
2021/01/14 19:23:09;;;;;;;5.25;1.90;;;17.60;60.00;;;;;;10291785;28;20031;-64
2021/01/14 19:28:09;;;;;;;3.70;2.45;;;17.70;60.30;;;;;;10284382;28;20027;-64
2021/01/14 19:33:12;;;;;;;8.27;2.20;;;17.70;60.30;;;;;;10287161;28;20125;-64
2021/01/14 19:38:14;;;;;;;3.03;1.48;;;17.70;60.40;;;;;;10305436;28;20467;-64
2021/01/14 19:43:15;;;;;;;2.70;1.67;;;17.80;60.50;;;;;;10283860;28;20483;-64
2021/01/14 19:48:15;;;;;;;3.50;1.67;;;17.70;60.50;;;;;;10303153;28;20027;-65
2021/01/14 19:53:16;;;;;;;5.90;1.90;;;17.70;60.50;;;;;;10285193;28;20034;-65
2021/01/14 19:58:17;;;;;;;5.97;2.85;;;17.80;60.50;;;;;;10278772;28;20137;-64
2021/01/14 20:03:17;;;;;;;3.70;1.55;;;17.80;60.70;;;;;;10282269;28;20048;-64
2021/01/14 20:08:18;;;;;;;4.30;1.85;;;17.80;60.60;;;;;;10275140;28;20471;-64
2021/01/14 20:13:19;;;;;;;2.72;1.38;;;17.70;60.70;;;;;;10283248;28;20460;-65
2021/01/14 20:18:19;;;;;;;9.20;2.20;;;17.70;60.90;;;;;;10265883;28;20026;-65
2021/01/14 20:23:20;;;;;;;12.20;2.15;;;17.60;61.10;;;;;;10274703;28;20125;-65
2021/01/14 20:28:21;;;;;;;4.30;1.80;;;17.50;61.30;;;;;;10301811;28;20122;-65
2021/01/14 20:33:22;;;;;;;2.92;1.55;;;17.40;61.50;;;;;;10296781;28;20162;-65
2021/01/14 20:38:23;;;;;;;4.20;1.70;;;17.40;61.70;;;;;;10281827;28;20028;-65
2021/01/14 20:43:23;;;;;;;3.70;1.90;;;17.30;61.80;;;;;;10285394;28;20066;-65
2021/01/14 20:48:24;;;;;;;2.35;1.50;;;17.20;62.10;;;;;;10299774;28;20100;-65
2021/01/14 20:53:25;;;;;;;4.50;1.50;;;17.20;62.20;;;;;;10281516;28;20035;-66
2021/01/14 20:58:25;;;;;;;3.72;1.60;;;17.20;62.30;;;;;;10278300;28;20114;-66
2021/01/14 21:03:26;;;;;;;3.88;1.58;;;17.20;62.40;;;;;;10271898;28;20113;-65
2021/01/14 21:08:27;;;;;;;4.28;1.50;;;17.10;62.40;;;;;;10281041;28;20105;-65
2021/01/14 21:13:28;;;;;;;4.07;1.60;;;17.20;62.40;;;;;;10287844;28;20030;-66
2021/01/14 21:18:28;;;;;;;2.60;1.42;;;17.10;62.30;;;;;;10278142;28;20102;-65
2021/01/14 21:23:29;;;;;;;2.92;1.60;;;17.10;62.30;;;;;;10292377;28;20047;-65
2021/01/14 21:28:30;;;;;;;2.33;1.50;;;17.10;62.30;;;;;;10289569;28;20054;-65
2021/01/14 21:33:30;;;;;;;3.15;1.60;;;17.10;62.30;;;;;;10288522;28;20034;-65
2021/01/14 21:38:31;;;;;;;3.47;1.35;;;17.10;62.20;;;;;;10298761;28;20122;-66
2021/01/14 21:43:32;;;;;;;3.17;1.65;;;17.10;62.20;;;;;;10275401;28;20436;-65
2021/01/14 21:48:33;;;;;;;2.70;1.45;;;17.10;62.10;;;;;;10297883;28;20121;-65
2021/01/14 21:53:33;;;;;;;3.28;2.40;;;17.10;62.10;;;;;;10288373;28;20121;-65
2021/01/14 21:58:35;;;;;;;5.90;1.70;;;17.10;62.00;;;;;;10297982;28;20557;-65
2021/01/14 22:03:36;;;;;;;2.30;1.38;;;17.00;62.00;;;;;;10297767;28;20427;-66
2021/01/14 22:08:36;;;;;;;2.97;1.48;;;17.00;62.10;;;;;;10296522;28;20062;-66
2021/01/14 22:13:39;;;;;;;3.50;1.73;;;17.00;62.00;;;;;;10297251;28;20502;-66
2021/01/14 22:18:40;;;;;;;3.15;1.88;;;17.00;62.00;;;;;;10296339;28;20030;-66
2021/01/14 22:23:40;;;;;;;2.65;1.63;;;17.00;62.00;;;;;;10293043;28;20050;-66
2021/01/14 22:28:43;;;;;;;4.22;1.50;;;17.00;62.00;;;;;;10292668;28;20038;-66
2021/01/14 22:33:46;;;;;;;2.78;1.60;;;16.90;62.00;;;;;;10294011;28;20360;-66
2021/01/14 22:38:46;;;;;;;2.90;1.55;;;16.90;62.00;;;;;;10296719;28;20114;-66
2021/01/14 22:43:47;;;;;;;2.42;1.42;;;16.90;62.10;;;;;;10287106;28;20483;-65
2021/01/14 22:48:48;;;;;;;2.97;1.73;;;16.90;62.00;;;;;;10296508;28;20038;-66
2021/01/14 22:53:49;;;;;;;1.92;1.30;;;16.90;61.90;;;;;;10284946;28;20396;-66
2021/01/14 22:58:49;;;;;;;2.28;1.38;;;16.90;62.00;;;;;;10293542;28;20599;-66
2021/01/14 23:03:52;;;;;;;2.92;1.70;;;16.90;61.90;;;;;;10296165;28;20106;-66
2021/01/14 23:08:52;;;;;;;2.15;1.40;;;16.90;61.80;;;;;;10295829;28;20066;-67
2021/01/14 23:13:53;;;;;;;2.10;1.38;;;16.90;61.80;;;;;;10293557;28;20111;-66
2021/01/14 23:18:54;;;;;;;2.05;1.13;;;16.90;61.80;;;;;;10295430;28;20038;-66
2021/01/14 23:23:55;;;;;;;2.20;1.38;;;16.80;61.70;;;;;;10294700;28;20487;-66
2021/01/14 23:28:55;;;;;;;2.10;1.40;;;16.80;61.70;;;;;;10271774;28;20070;-66
2021/01/14 23:33:58;;;;;;;1.75;1.30;;;16.80;61.70;;;;;;10292240;28;20027;-66
2021/01/14 23:39:01;;;;;;;3.20;1.65;;;16.90;61.70;;;;;;10293600;28;20400;-66
2021/01/14 23:44:02;;;;;;;2.75;1.20;;;16.90;61.50;;;;;;10293230;28;20042;-66
2021/01/14 23:49:03;;;;;;;2.00;1.20;;;16.90;61.60;;;;;;10282053;28;20070;-66
2021/01/14 23:54:04;;;;;;;3.08;1.50;;;16.90;61.50;;;;;;10293315;28;20054;-66
2021/01/14 23:59:05;;;;;;;2.83;1.58;;;16.90;61.40;;;;;;10292344;28;20141;-66
